Time,TemperatureF,DewpointF,PressureIn,WindDirection,WindDirectionDegrees,WindSpeedMPH,WindSpeedGustMPH,Humidity,HourlyPrecipIn,Conditions,Clouds,dailyrainin,SoftwareType,DateUTC
2013-03-03 00:15:00,6.7,4.0,30.30,West,275,0.0,0.0,90,0.00,,,0.00,weatherlink.com 1.10,2013-03-03 09:15:00,
2013-03-03 00:30:00,5.9,4.0,30.30,West,275,0.0,0.0,91,0.00,,,0.00,weatherlink.com 1.10,2013-03-03 09:30:00,
2013-03-03 00:45:00,7.2,5.0,30.31,West,276,0.0,0.0,92,0.00,,,0.00,weatherlink.com 1.10,2013-03-03 09:45:00,
2013-03-03 01:00:00,8.6,7.0,30.31,NNE,25,0.0,0.0,92,0.00,,,0.00,weatherlink.com 1.10,2013-03-03 10:00:00,
2013-03-03 01:15:00,8.9,7.0,30.32,NW,326,0.0,0.0,91,0.00,,,0.00,weatherlink.com 1.10,2013-03-03 10:15:00,
2013-03-03 01:30:00,7.9,6.0,30.32,NNE,19,0.0,0.0,90,0.00,,,0.00,weatherlink.com 1.10,2013-03-03 10:30:00,
2013-03-03 01:45:00,7.4,5.0,30.32,NNE,19,0.0,0.0,89,0.00,,,0.00,weatherlink.com 1.10,2013-03-03 10:45:00,
2013-03-03 02:00:00,7.4,5.0,30.33,NNE,19,0.0,0.0,90,0.00,,,0.00,weatherlink.com 1.10,2013-03-03 11:00:00,
2013-03-03 02:15:00,6.9,5.0,30.33,NNE,19,0.0,0.0,90,0.00,,,0.00,weatherlink.com 1.10,2013-03-03 11:15:00,
2013-03-03 02:30:00,6.2,3.0,30.33,ESE,104,0.0,0.0,86,0.00,,,0.00,weatherlink.com 1.10,2013-03-03 11:30:00,
2013-03-03 02:45:00,4.1,1.0,30.33,ENE,78,0.0,0.0,88,0.00,,,0.00,weatherlink.com 1.10,2013-03-03 11:45:00,
2013-03-03 03:00:00,5.7,4.0,30.34,WNW,298,0.0,0.0,92,0.00,,,0.00,weatherlink.com 1.10,2013-03-03 12:00:00,
2013-03-03 03:15:00,7.3,5.0,30.34,NNE,23,0.0,0.0,90,0.00,,,0.00,weatherlink.com 1.10,2013-03-03 12:15:00,
2013-03-03 03:30:00,8.0,6.0,30.35,WNW,303,0.0,0.0,90,0.00,,,0.00,weatherlink.com 1.10,2013-03-03 12:30:00,
2013-03-03 03:45:00,7.5,5.0,30.35,WNW,303,0.0,0.0,89,0.00,,,0.00,weatherlink.com 1.10,2013-03-03 12:45:00,
2013-03-03 04:00:00,5.8,3.0,30.36,NW,304,0.0,0.0,88,0.00,,,0.00,weatherlink.com 1.10,2013-03-03 13:00:00,
2013-03-03 04:15:00,3.5,1.0,30.36,WNW,303,0.0,0.0,87,0.00,,,0.00,weatherlink.com 1.10,2013-03-03 13:15:00,
2013-03-03 04:30:00,2.5,0.0,30.36,WNW,303,0.0,0.0,88,0.00,,,0.00,weatherlink.com 1.10,2013-03-03 13:30:00,
2013-03-03 04:45:00,1.8,-1.0,30.36,NE,50,0.0,0.0,88,0.00,,,0.00,weatherlink.com 1.10,2013-03-03 13:45:00,
2013-03-03 05:00:00,2.1,0.0,30.37,NE,50,0.0,0.0,89,0.00,,,0.00,weatherlink.com 1.10,2013-03-03 14:00:00,
2013-03-03 05:15:00,3.9,2.0,30.37,NE,50,0.0,0.0,90,0.00,,,0.00,weatherlink.com 1.10,2013-03-03 14:15:00,
2013-03-03 05:30:00,5.0,3.0,30.37,NE,50,0.0,0.0,90,0.00,,,0.00,weatherlink.com 1.10,2013-03-03 14:30:00,
2013-03-03 05:45:00,5.0,3.0,30.37,NE,50,0.0,0.0,89,0.00,,,0.00,weatherlink.com 1.10,2013-03-03 14:45:00,
2013-03-03 06:01:00,4.2,2.0,30.37,NE,50,0.0,0.0,89,0.00,,,0.00,weatherlink.com 1.10,2013-03-03 15:01:00,
2013-03-03 06:16:00,4.1,2.0,30.38,NE,50,0.0,0.0,89,0.00,,,0.00,weatherlink.com 1.10,2013-03-03 15:16:00,
2013-03-03 06:31:00,3.8,1.0,30.38,NE,50,0.0,0.0,89,0.00,,,0.00,weatherlink.com 1.10,2013-03-03 15:31:00,
2013-03-03 06:46:00,3.5,1.0,30.39,NE,50,0.0,0.0,89,0.00,,,0.00,weatherlink.com 1.10,2013-03-03 15:46:00,
2013-03-03 07:01:00,3.3,1.0,30.39,NE,50,0.0,0.0,90,0.00,,,0.00,weatherlink.com 1.10,2013-03-03 16:01:00,
2013-03-03 07:16:00,3.2,1.0,30.39,NE,50,0.0,0.0,89,0.00,,,0.00,weatherlink.com 1.10,2013-03-03 16:16:00,
2013-03-03 07:31:00,3.7,2.0,30.39,NE,50,0.0,0.0,90,0.00,,,0.00,weatherlink.com 1.10,2013-03-03 16:31:00,
2013-03-03 07:46:00,2.8,0.0,30.39,NE,50,0.0,0.0,88,0.00,,,0.00,weatherlink.com 1.10,2013-03-03 16:46:00,
2013-03-03 08:01:00,2.4,-1.0,30.39,SSW,195,0.0,0.0,86,0.00,,,0.00,weatherlink.com 1.10,2013-03-03 17:01:00,
2013-03-03 08:16:00,1.9,-1.0,30.39,SSW,195,0.0,0.0,89,0.00,,,0.00,weatherlink.com 1.10,2013-03-03 17:16:00,
2013-03-03 08:31:00,1.5,-2.0,30.40,SSW,195,0.0,0.0,87,0.00,,,0.00,weatherlink.com 1.10,2013-03-03 17:31:00,
2013-03-03 08:46:00,2.1,0.0,30.41,SSW,197,0.0,0.0,90,0.00,,,0.00,weatherlink.com 1.10,2013-03-03 17:46:00,
2013-03-03 09:01:00,2.9,1.0,30.41,SSW,195,0.0,0.0,90,0.00,,,0.00,weatherlink.com 1.10,2013-03-03 18:01:00,
2013-03-03 09:16:00,3.6,1.0,30.42,SSW,197,0.0,0.0,90,0.00,,,0.00,weatherlink.com 1.10,2013-03-03 18:16:00,
2013-03-03 09:32:00,2.5,-1.0,30.43,West,267,0.0,0.0,85,0.00,,,0.00,weatherlink.com 1.10,2013-03-03 18:32:00,
2013-03-03 09:47:00,2.0,-1.0,30.43,North,5,0.0,0.0,88,0.00,,,0.00,weatherlink.com 1.10,2013-03-03 18:47:00,
2013-03-03 10:02:00,2.9,0.0,30.43,NW,307,0.0,0.0,89,0.00,,,0.00,weatherlink.com 1.10,2013-03-03 19:02:00,
2013-03-03 10:17:00,4.6,2.0,30.44,NW,307,0.0,0.0,88,0.00,,,0.00,weatherlink.com 1.10,2013-03-03 19:17:00,
2013-03-03 10:32:00,5.8,4.0,30.43,NW,307,0.0,0.0,90,0.00,,,0.00,weatherlink.com 1.10,2013-03-03 19:32:00,
2013-03-03 10:47:00,5.6,3.0,30.44,West,263,0.0,0.0,88,0.00,,,0.00,weatherlink.com 1.10,2013-03-03 19:47:00,
2013-03-03 11:02:00,8.5,7.0,30.43,SSW,203,0.0,0.0,92,0.00,,,0.00,weatherlink.com 1.10,2013-03-03 20:02:00,
2013-03-03 11:17:00,11.5,9.0,30.43,West,276,0.0,0.0,90,0.00,,,0.00,weatherlink.com 1.10,2013-03-03 20:17:00,
2013-03-03 11:32:00,12.3,9.0,30.43,West,276,0.0,0.0,88,0.00,,,0.00,weatherlink.com 1.10,2013-03-03 20:32:00,
2013-03-03 11:47:00,13.7,10.0,30.44,WNW,284,0.0,0.0,84,0.00,,,0.00,weatherlink.com 1.10,2013-03-03 20:47:00,
2013-03-03 12:02:00,13.7,10.0,30.44,West,271,0.0,0.0,84,0.00,,,0.00,weatherlink.com 1.10,2013-03-03 21:02:00,
2013-03-03 12:17:00,14.2,9.0,30.45,WSW,257,0.0,0.0,81,0.00,,,0.00,weatherlink.com 1.10,2013-03-03 21:17:00,
2013-03-03 12:32:00,15.5,10.0,30.45,West,259,0.0,0.0,80,0.00,,,0.00,weatherlink.com 1.10,2013-03-03 21:32:00,
2013-03-03 12:47:00,16.8,11.0,30.45,SW,214,0.0,0.0,79,0.00,,,0.00,weatherlink.com 1.10,2013-03-03 21:47:00,
2013-03-03 13:03:00,18.4,12.0,30.45,SSW,207,0.0,0.0,77,0.00,,,0.00,weatherlink.com 1.10,2013-03-03 22:03:00,
2013-03-03 13:18:00,19.6,13.0,30.45,SSW,207,0.0,0.0,75,0.00,,,0.00,weatherlink.com 1.10,2013-03-03 22:18:00,
2013-03-03 13:33:00,21.3,14.0,30.45,SSW,207,0.0,0.0,72,0.00,,,0.00,weatherlink.com 1.10,2013-03-03 22:33:00,
2013-03-03 13:48:00,21.4,14.0,30.45,SSW,207,0.0,0.0,73,0.00,,,0.00,weatherlink.com 1.10,2013-03-03 22:48:00,
2013-03-03 14:03:00,22.2,14.0,30.45,SW,235,0.0,0.0,70,0.00,,,0.00,weatherlink.com 1.10,2013-03-03 23:03:00,
2013-03-03 14:18:00,23.8,15.0,30.45,ESE,102,0.0,0.0,68,0.00,,,0.00,weatherlink.com 1.10,2013-03-03 23:18:00,
2013-03-03 14:33:00,24.1,15.0,30.45,WSW,245,0.0,0.0,67,0.00,,,0.00,weatherlink.com 1.10,2013-03-03 23:33:00,
2013-03-03 14:48:00,24.3,14.0,30.45,West,262,0.0,0.0,64,0.00,,,0.00,weatherlink.com 1.10,2013-03-03 23:48:00,
2013-03-03 15:03:00,24.8,13.0,30.45,West,262,0.0,0.0,62,0.00,,,0.00,weatherlink.com 1.10,2013-03-04 00:03:00,
2013-03-03 15:18:00,25.0,14.0,30.45,ESE,106,0.0,0.0,62,0.00,,,0.00,weatherlink.com 1.10,2013-03-04 00:18:00,
2013-03-03 15:33:00,24.8,14.0,30.45,ESE,106,0.0,0.0,63,0.00,,,0.00,weatherlink.com 1.10,2013-03-04 00:33:00,
2013-03-03 15:48:00,24.5,14.0,30.45,ESE,106,0.0,0.0,65,0.00,,,0.00,weatherlink.com 1.10,2013-03-04 00:48:00,
2013-03-03 16:03:00,24.0,14.0,30.46,ESE,106,0.0,0.0,67,0.00,,,0.00,weatherlink.com 1.10,2013-03-04 01:03:00,
2013-03-03 16:18:00,23.5,15.0,30.46,ESE,106,0.0,0.0,69,0.00,,,0.00,weatherlink.com 1.10,2013-03-04 01:18:00,
2013-03-03 16:34:00,22.8,14.0,30.46,ESE,106,0.0,0.0,69,0.00,,,0.00,weatherlink.com 1.10,2013-03-04 01:34:00,
2013-03-03 16:49:00,22.3,14.0,30.46,ESE,105,0.0,0.0,71,0.00,,,0.00,weatherlink.com 1.10,2013-03-04 01:49:00,
2013-03-03 17:04:00,22.0,14.0,30.46,ESE,106,0.0,0.0,72,0.00,,,0.00,weatherlink.com 1.10,2013-03-04 02:04:00,
2013-03-03 17:19:00,21.9,14.0,30.46,ESE,106,0.0,0.0,71,0.00,,,0.00,weatherlink.com 1.10,2013-03-04 02:19:00,
2013-03-03 17:34:00,21.5,13.0,30.47,ESE,105,0.0,0.0,71,0.00,,,0.00,weatherlink.com 1.10,2013-03-04 02:34:00,
2013-03-03 17:49:00,20.9,14.0,30.47,ESE,106,0.0,0.0,73,0.00,,,0.00,weatherlink.com 1.10,2013-03-04 02:49:00,
2013-03-03 18:04:00,19.7,13.0,30.47,ESE,106,0.0,0.0,74,0.00,,,0.00,weatherlink.com 1.10,2013-03-04 03:04:00,
2013-03-03 18:19:00,18.8,12.0,30.47,ESE,106,0.0,0.0,74,0.00,,,0.00,weatherlink.com 1.10,2013-03-04 03:19:00,
2013-03-03 18:34:00,18.5,12.0,30.48,ESE,105,0.0,0.0,75,0.00,,,0.00,weatherlink.com 1.10,2013-03-04 03:34:00,
2013-03-03 18:49:00,17.7,12.0,30.48,ESE,105,0.0,0.0,77,0.00,,,0.00,weatherlink.com 1.10,2013-03-04 03:49:00,
2013-03-03 19:04:00,17.1,11.0,30.49,ESE,105,0.0,0.0,78,0.00,,,0.00,weatherlink.com 1.10,2013-03-04 04:04:00,
2013-03-03 19:19:00,16.0,10.0,30.50,ESE,105,0.0,0.0,77,0.00,,,0.00,weatherlink.com 1.10,2013-03-04 04:19:00,
2013-03-03 19:34:00,14.6,9.0,30.51,ESE,107,0.0,0.0,79,0.00,,,0.00,weatherlink.com 1.10,2013-03-04 04:34:00,
2013-03-03 19:50:00,13.0,8.0,30.51,ESE,106,0.0,0.0,80,0.00,,,0.00,weatherlink.com 1.10,2013-03-04 04:50:00,
2013-03-03 20:05:00,11.8,7.0,30.52,ESE,105,0.0,0.0,81,0.00,,,0.00,weatherlink.com 1.10,2013-03-04 05:05:00,
2013-03-03 20:20:00,10.7,6.0,30.52,ESE,106,0.0,0.0,82,0.00,,,0.00,weatherlink.com 1.10,2013-03-04 05:20:00,
2013-03-03 20:35:00,10.4,6.0,30.52,ESE,106,0.0,0.0,83,0.00,,,0.00,weatherlink.com 1.10,2013-03-04 05:35:00,
2013-03-03 20:50:00,9.7,6.0,30.52,NE,39,0.0,0.0,83,0.00,,,0.00,weatherlink.com 1.10,2013-03-04 05:50:00,
2013-03-03 21:05:00,9.5,6.0,30.52,NE,39,0.0,0.0,84,0.00,,,0.00,weatherlink.com 1.10,2013-03-04 06:05:00,
2013-03-03 21:20:00,10.3,7.0,30.52,NE,39,0.0,0.0,87,0.00,,,0.00,weatherlink.com 1.10,2013-03-04 06:20:00,
2013-03-03 21:35:00,10.3,7.0,30.52,East,79,0.0,0.0,87,0.00,,,0.00,weatherlink.com 1.10,2013-03-04 06:35:00,
2013-03-03 21:50:00,10.6,7.0,30.52,East,79,0.0,0.0,85,0.00,,,0.00,weatherlink.com 1.10,2013-03-04 06:50:00,
2013-03-03 22:05:00,10.4,7.0,30.53,East,79,0.0,0.0,84,0.00,,,0.00,weatherlink.com 1.10,2013-03-04 07:05:00,
2013-03-03 22:20:00,9.9,6.0,30.54,East,79,0.0,0.0,85,0.00,,,0.00,weatherlink.com 1.10,2013-03-04 07:20:00,
2013-03-03 22:35:00,9.2,6.0,30.54,East,79,0.0,0.0,85,0.00,,,0.00,weatherlink.com 1.10,2013-03-04 07:35:00,
2013-03-03 22:50:00,8.6,5.0,30.55,East,79,0.0,0.0,85,0.00,,,0.00,weatherlink.com 1.10,2013-03-04 07:50:00,
2013-03-03 23:06:00,7.4,4.0,30.55,East,79,0.0,0.0,86,0.00,,,0.00,weatherlink.com 1.10,2013-03-04 08:06:00,
2013-03-03 23:21:00,7.0,4.0,30.55,East,79,0.0,0.0,86,0.00,,,0.00,weatherlink.com 1.10,2013-03-04 08:21:00,
2013-03-03 23:36:00,6.5,4.0,30.55,East,79,0.0,0.0,87,0.00,,,0.00,weatherlink.com 1.10,2013-03-04 08:36:00,
2013-03-03 23:51:00,7.0,4.0,30.55,East,79,0.0,0.0,87,0.00,,,0.00,weatherlink.com 1.10,2013-03-04 08:51:00,